createdAt,value
2022-08-02T00:00:12.342Z,6.03
2022-08-02T00:02:39.757Z,5.10
2022-08-02T00:05:07.519Z,7.10
2022-08-02T00:07:40.546Z,4.78
2022-08-02T00:10:10.025Z,7.32
2022-08-02T00:12:38.053Z,5.13
2022-08-02T00:15:09.219Z,6.28
2022-08-02T00:17:36.573Z,4.82
2022-08-02T00:20:05.001Z,5.88
2022-08-02T00:22:32.468Z,5.88
2022-08-02T00:24:59.833Z,5.03
2022-08-02T00:27:27.163Z,5.57
2022-08-02T00:29:55.423Z,5.93
2022-08-02T00:32:23.133Z,4.88
2022-08-02T00:34:50.951Z,4.32
2022-08-02T00:37:18.252Z,5.93
2022-08-02T00:39:45.505Z,4.78
2022-08-02T00:42:14.838Z,5.40
2022-08-02T00:44:42.376Z,5.10
2022-08-02T00:47:09.875Z,4.95
2022-08-02T00:49:37.695Z,8.90
2022-08-02T00:52:05.271Z,8.00
2022-08-02T00:54:32.525Z,5.05
2022-08-02T00:56:59.881Z,5.13
2022-08-02T00:59:27.138Z,5.45
2022-08-02T01:01:58.164Z,5.28
2022-08-02T01:04:31.019Z,6.00
2022-08-02T01:07:12.674Z,6.50
2022-08-02T01:12:09.738Z,7.47
2022-08-02T01:14:38.368Z,8.07
2022-08-02T01:17:44.663Z,5.28
2022-08-02T01:20:32.060Z,5.43
2022-08-02T01:23:20.548Z,8.73
2022-08-02T01:26:02.944Z,9.23
2022-08-02T01:28:35.199Z,8.02
2022-08-02T01:31:22.781Z,10.30
2022-08-02T01:34:05.499Z,18.10
2022-08-02T01:37:11.518Z,15.05
2022-08-02T01:39:38.879Z,16.27
2022-08-02T01:42:06.375Z,13.93
2022-08-02T01:44:36.033Z,13.20
2022-08-02T01:47:08.383Z,12.15
2022-08-02T01:49:35.805Z,11.57
2022-08-02T01:52:21.846Z,13.95
2022-08-02T01:55:18.728Z,12.23
2022-08-02T01:57:54.112Z,14.07
2022-08-02T02:00:22.459Z,10.20
2022-08-02T02:02:49.969Z,9.57
2022-08-02T02:05:19.871Z,10.13
2022-08-02T02:07:51.604Z,8.65
2022-08-02T02:10:21.249Z,8.57
2022-08-02T02:12:51.123Z,8.95
2022-08-02T02:15:18.369Z,9.45
2022-08-02T02:17:50.509Z,8.43
2022-08-02T02:20:34.609Z,8.70
2022-08-02T02:23:03.154Z,10.40
2022-08-02T02:25:35.867Z,10.68
2022-08-02T02:28:05.747Z,9.57
2022-08-02T02:30:33.244Z,11.57
2022-08-02T02:33:02.223Z,9.57
2022-08-02T02:35:31.949Z,12.45
2022-08-02T02:38:00.911Z,10.60
2022-08-02T02:40:28.812Z,14.80
2022-08-02T02:42:56.605Z,13.60
2022-08-02T02:45:24.107Z,18.58
2022-08-02T02:47:51.876Z,13.68
2022-08-02T02:50:20.105Z,15.05
2022-08-02T02:52:47.347Z,15.80
2022-08-02T02:55:15.184Z,14.57
2022-08-02T02:57:42.442Z,15.18
2022-08-02T03:00:11.431Z,8.98
2022-08-02T03:02:39.436Z,10.27
2022-08-02T03:05:07.498Z,7.65
2022-08-02T03:07:35.043Z,7.38
2022-08-02T03:10:06.895Z,6.75
2022-08-02T03:12:34.475Z,6.53
2022-08-02T03:15:04.510Z,7.60
2022-08-02T03:17:42.726Z,6.97
2022-08-02T03:20:15.369Z,7.45
2022-08-02T03:22:43.360Z,10.00
2022-08-02T03:25:11.206Z,7.32
2022-08-02T03:27:38.657Z,8.38
2022-08-02T03:30:07.203Z,7.72
2022-08-02T03:32:38.787Z,6.60
2022-08-02T03:35:07.044Z,6.70
2022-08-02T03:37:34.339Z,8.98
2022-08-02T03:40:01.690Z,6.53
2022-08-02T03:42:29.028Z,6.57
2022-08-02T03:44:56.355Z,7.30
2022-08-02T03:47:23.692Z,6.03
2022-08-02T03:49:51.488Z,6.35
2022-08-02T03:52:18.793Z,9.15
2022-08-02T03:54:46.165Z,6.20
2022-08-02T03:57:13.806Z,6.90
2022-08-02T03:59:45.158Z,6.80
2022-08-02T04:04:40.633Z,6.45
2022-08-02T04:07:09.606Z,5.85
2022-08-02T04:09:37.068Z,5.88
2022-08-02T04:12:04.737Z,7.18
2022-08-02T04:14:36.709Z,5.53
2022-08-02T04:17:08.759Z,8.27
2022-08-02T04:19:42.531Z,5.65
2022-08-02T04:22:17.315Z,5.25
2022-08-02T04:24:49.840Z,5.78
2022-08-02T04:27:19.728Z,8.43
2022-08-02T04:30:05.354Z,6.55
2022-08-02T04:32:32.882Z,5.40
2022-08-02T04:35:18.722Z,5.35
2022-08-02T04:38:08.751Z,5.60
2022-08-02T04:40:34.245Z,5.10
2022-08-02T04:43:01.603Z,6.78
2022-08-02T04:45:28.904Z,5.95
2022-08-02T04:48:04.448Z,7.35
2022-08-02T04:50:33.580Z,6.35
2022-08-02T04:53:00.905Z,7.13
2022-08-02T04:55:31.041Z,6.82
2022-08-02T04:57:58.767Z,6.03
2022-08-02T05:00:27.435Z,7.10
2022-08-02T05:02:56.513Z,7.00
2022-08-02T05:05:23.765Z,6.22
2022-08-02T05:07:51.316Z,5.97
2022-08-02T05:10:19.189Z,7.13
2022-08-02T05:12:46.730Z,6.78
2022-08-02T05:15:16.616Z,6.43
2022-08-02T05:17:46.869Z,7.68
2022-08-02T05:20:19.151Z,8.15
2022-08-02T05:22:46.824Z,7.05
2022-08-02T05:25:14.420Z,7.07
2022-08-02T05:27:41.759Z,6.10
2022-08-02T05:30:09.780Z,6.60
2022-08-02T05:32:50.632Z,5.43
2022-08-02T05:35:18.771Z,8.48
2022-08-02T05:37:48.130Z,5.47
2022-08-02T05:40:15.859Z,7.03
2022-08-02T05:42:43.274Z,6.13
2022-08-02T05:45:10.839Z,6.47
2022-08-02T05:47:38.707Z,9.52
2022-08-02T05:50:06.962Z,11.77
2022-08-02T05:53:20.848Z,10.63
2022-08-02T05:55:50.597Z,14.23
2022-08-02T05:58:25.086Z,12.63
2022-08-02T06:00:52.460Z,12.02
2022-08-02T06:03:25.431Z,14.30
2022-08-02T06:06:06.630Z,10.75
2022-08-02T06:08:38.588Z,12.05
2022-08-02T06:11:06.578Z,10.68
2022-08-02T06:13:33.900Z,8.82
2022-08-02T06:16:01.305Z,8.70
2022-08-02T06:18:29.228Z,9.43
2022-08-02T06:22:29.704Z,6.03
2022-08-02T06:23:58.136Z,5.20
2022-08-02T06:26:27.448Z,9.15
2022-08-02T06:28:55.655Z,7.32
2022-08-02T06:31:22.971Z,7.05
2022-08-02T06:33:50.282Z,7.10
2022-08-02T06:37:16.412Z,8.50
2022-08-02T06:39:48.594Z,7.68
2022-08-02T06:42:27.628Z,6.63
2022-08-02T06:44:57.806Z,8.02
2022-08-02T06:47:26.560Z,6.10
2022-08-02T06:49:55.228Z,6.10
2022-08-02T06:52:28.689Z,6.22
2022-08-02T06:54:57.893Z,5.22
2022-08-02T06:57:25.165Z,4.28
2022-08-02T06:59:52.553Z,5.50
2022-08-02T07:02:19.809Z,4.45
2022-08-02T07:04:47.131Z,6.70
2022-08-02T07:07:14.548Z,5.68
2022-08-02T07:09:56.815Z,7.15
2022-08-02T07:12:28.854Z,6.22
2022-08-02T07:14:56.533Z,8.30
2022-08-02T07:17:23.856Z,6.82
2022-08-02T07:19:51.111Z,6.35
2022-08-02T07:22:20.273Z,6.05
2022-08-02T07:24:47.547Z,6.50
2022-08-02T07:27:14.808Z,5.22
2022-08-02T07:29:46.039Z,7.13
2022-08-02T07:32:18.425Z,6.32
2022-08-02T07:37:52.850Z,6.63
2022-08-02T07:40:13.970Z,5.70
2022-08-02T07:43:03.973Z,4.85
2022-08-02T07:45:32.632Z,6.75
2022-08-02T07:48:00.272Z,5.07
2022-08-02T07:50:28.636Z,7.10
2022-08-02T07:52:57.135Z,7.38
2022-08-02T07:55:39.169Z,5.68
2022-08-02T07:58:12.336Z,8.57
2022-08-02T08:00:42.757Z,7.20
2022-08-02T08:03:10.130Z,7.40
2022-08-02T08:05:37.436Z,8.98
2022-08-02T08:08:06.150Z,7.05
2022-08-02T08:10:33.639Z,5.18
2022-08-02T08:13:00.933Z,6.32
2022-08-02T08:15:28.223Z,4.90
2022-08-02T08:17:55.506Z,6.63
2022-08-02T08:20:23.244Z,5.13
2022-08-02T08:22:50.563Z,6.60
2022-08-02T08:25:18.164Z,6.07
2022-08-02T08:27:49.698Z,5.00
2022-08-02T08:30:17.090Z,8.27
2022-08-02T08:32:44.642Z,3.55
2022-08-02T08:35:12.265Z,2.45
2022-08-02T08:37:39.715Z,2.63
2022-08-02T08:40:10.005Z,2.40
2022-08-02T08:42:38.497Z,3.20
2022-08-02T08:45:06.240Z,3.03
2022-08-02T08:47:40.527Z,4.00
2022-08-02T08:50:16.812Z,3.83
2022-08-02T08:52:54.236Z,3.25
2022-08-02T08:55:23.085Z,4.03
2022-08-02T08:57:50.379Z,3.45
2022-08-02T09:00:18.059Z,4.75
2022-08-02T09:02:45.378Z,4.32
2022-08-02T09:05:14.100Z,4.85
2022-08-02T09:07:44.760Z,4.40
2022-08-02T09:10:35.197Z,4.07
2022-08-02T09:13:37.530Z,4.28
2022-08-02T09:16:14.414Z,3.85
2022-08-02T09:18:44.871Z,6.97
2022-08-02T09:21:12.737Z,4.50
2022-08-02T09:23:43.839Z,4.38
2022-08-02T09:26:15.688Z,4.60
2022-08-02T09:28:44.403Z,4.15
2022-08-02T09:31:16.582Z,5.07
2022-08-02T09:33:45.478Z,9.95
2022-08-02T09:36:13.930Z,6.65
2022-08-02T09:38:52.204Z,3.83
2022-08-02T09:41:24.316Z,4.00
2022-08-02T09:44:03.861Z,3.47
2022-08-02T09:46:38.541Z,5.60
2022-08-02T09:49:09.765Z,16.67
2022-08-02T09:51:39.540Z,17.80
2022-08-02T09:54:09.447Z,4.88
2022-08-02T09:56:48.289Z,3.95
2022-08-02T09:59:16.861Z,4.78
2022-08-02T10:01:51.204Z,6.22
2022-08-02T10:04:30.601Z,6.25
2022-08-02T10:06:59.791Z,4.68
2022-08-02T10:09:28.757Z,6.20
2022-08-02T10:11:56.272Z,5.07
2022-08-02T10:14:23.788Z,4.95
2022-08-02T10:16:51.750Z,4.78
2022-08-02T10:19:38.828Z,4.72
2022-08-02T10:22:07.373Z,5.38
2022-08-02T10:24:39.608Z,4.45
2022-08-02T10:27:20.244Z,4.80
2022-08-02T10:29:53.640Z,4.60
2022-08-02T10:32:44.045Z,4.43
2022-08-02T10:35:18.863Z,6.85
2022-08-02T10:38:01.506Z,4.38
2022-08-02T10:40:48.849Z,4.82
2022-08-02T10:43:31.430Z,3.88
2022-08-02T10:46:23.816Z,6.90
2022-08-02T10:49:29.732Z,5.63
2022-08-02T10:52:01.472Z,4.13
2022-08-02T10:54:40.507Z,5.00
2022-08-02T10:57:24.638Z,3.90
2022-08-02T11:00:01.729Z,4.43
2022-08-02T11:02:42.983Z,4.35
2022-08-02T11:05:42.339Z,5.85
2022-08-02T11:08:21.384Z,4.90
2022-08-02T11:10:48.641Z,6.18
2022-08-02T11:13:17.320Z,5.25
2022-08-02T11:15:55.501Z,7.53
2022-08-02T11:18:23.885Z,6.80
2022-08-02T11:21:28.365Z,7.13
2022-08-02T11:23:55.699Z,6.82
2022-08-02T11:26:31.861Z,6.88
2022-08-02T11:29:01.364Z,7.05
2022-08-02T11:31:29.451Z,7.00
2022-08-02T11:33:56.718Z,9.40
2022-08-02T11:36:24.106Z,9.88
2022-08-02T11:38:51.396Z,7.32
2022-08-02T11:41:46.219Z,10.77
2022-08-02T11:44:07.153Z,7.20
2022-08-02T11:46:34.878Z,5.70
2022-08-02T11:49:18.324Z,4.72
2022-08-02T11:52:11.942Z,3.90
2022-08-02T11:54:42.578Z,4.07
2022-08-02T11:57:21.340Z,4.88
2022-08-02T11:59:52.859Z,5.40
2022-08-02T12:02:21.659Z,3.97
2022-08-02T12:04:52.979Z,5.70
2022-08-02T12:07:34.305Z,7.63
2022-08-02T12:10:10.033Z,6.68
2022-08-02T12:12:54.301Z,5.70
2022-08-02T12:15:32.606Z,5.95
2022-08-02T12:18:18.965Z,9.18
2022-08-02T12:20:46.291Z,4.63
2022-08-02T12:23:13.703Z,5.00
2022-08-02T12:25:41.496Z,4.57
2022-08-02T12:28:26.684Z,6.18
2022-08-02T12:30:58.738Z,4.88
2022-08-02T12:33:28.739Z,6.88
2022-08-02T12:35:56.459Z,7.80
2022-08-02T12:38:23.843Z,4.78
2022-08-02T12:40:51.125Z,4.20
2022-08-02T12:43:23.551Z,3.22
2022-08-02T12:45:54.842Z,3.63
2022-08-02T12:48:37.466Z,4.00
2022-08-02T12:51:51.176Z,3.63
2022-08-02T12:54:24.185Z,3.25
2022-08-02T12:57:19.387Z,3.38
2022-08-02T12:59:53.524Z,3.35
2022-08-02T13:02:21.462Z,2.40
2022-08-02T13:04:50.554Z,6.97
2022-08-02T13:07:18.976Z,4.43
2022-08-02T13:09:48.303Z,6.03
2022-08-02T13:12:16.530Z,3.17
2022-08-02T13:14:44.326Z,3.13
2022-08-02T13:17:11.710Z,2.90
2022-08-02T13:19:39.067Z,3.33
2022-08-02T13:22:06.430Z,4.32
2022-08-02T13:24:39.691Z,2.80
2022-08-02T13:27:09.488Z,2.90
2022-08-02T13:29:37.659Z,3.08
2022-08-02T13:32:05.463Z,3.92
2022-08-02T13:34:32.744Z,4.47
2022-08-02T13:37:00.112Z,3.28
2022-08-02T13:39:27.360Z,4.47
2022-08-02T13:41:55.264Z,5.57
2022-08-02T13:44:22.581Z,3.35
2022-08-02T13:46:49.923Z,3.20
2022-08-02T13:49:19.870Z,3.17
2022-08-02T13:51:48.131Z,4.22
2022-08-02T13:54:15.921Z,5.20
2022-08-02T13:56:43.268Z,3.83
2022-08-02T13:59:53.856Z,4.30
2022-08-02T14:01:58.805Z,3.60
2022-08-02T14:04:26.493Z,4.75
2022-08-02T14:06:54.006Z,5.03
2022-08-02T14:09:21.397Z,3.70
2022-08-02T14:11:48.918Z,4.75
2022-08-02T14:14:17.518Z,5.72
2022-08-02T14:16:45.448Z,4.72
2022-08-02T14:19:15.634Z,3.22
2022-08-02T14:21:47.951Z,4.45
2022-08-02T14:24:16.443Z,4.28
2022-08-02T14:26:44.582Z,3.60
2022-08-02T14:29:13.887Z,3.88
2022-08-02T14:31:44.331Z,4.93
2022-08-02T14:34:15.330Z,4.03
2022-08-02T14:36:42.717Z,4.82
2022-08-02T14:39:10.373Z,4.40
2022-08-02T14:41:59.590Z,3.72
2022-08-02T14:44:25.066Z,3.50
2022-08-02T14:46:52.987Z,4.88
2022-08-02T14:49:26.096Z,3.40
2022-08-02T14:51:54.582Z,4.07
2022-08-02T14:54:30.025Z,4.13
2022-08-02T14:56:58.942Z,4.05
2022-08-02T14:59:26.515Z,4.97
2022-08-02T15:01:54.372Z,7.80
2022-08-02T15:04:21.726Z,4.43
2022-08-02T15:06:49.010Z,5.45
2022-08-02T15:09:16.363Z,4.43
2022-08-02T15:11:47.889Z,5.00
2022-08-02T15:14:25.402Z,4.35
2022-08-02T15:16:58.777Z,4.78
2022-08-02T15:19:56.479Z,4.60
2022-08-02T15:22:19.209Z,5.05
2022-08-02T15:24:47.929Z,7.90
2022-08-02T15:27:15.827Z,6.93
2022-08-02T15:29:43.828Z,7.13
2022-08-02T15:32:11.875Z,7.43
2022-08-02T15:34:39.895Z,5.18
2022-08-02T15:37:07.188Z,5.70
2022-08-02T15:39:34.570Z,4.45
2022-08-02T15:42:01.947Z,4.30
2022-08-02T15:44:29.277Z,4.53
2022-08-02T15:46:56.587Z,7.07
2022-08-02T15:49:24.620Z,4.95
2022-08-02T15:51:52.569Z,6.18
2022-08-02T15:54:19.856Z,4.25
2022-08-02T15:56:47.198Z,5.70
2022-08-02T15:59:14.706Z,6.43
2022-08-02T16:01:46.640Z,8.23
2022-08-02T16:04:15.759Z,5.78
2022-08-02T16:06:43.405Z,8.48
2022-08-02T16:09:10.950Z,6.25
2022-08-02T16:11:38.438Z,6.40
2022-08-02T16:14:06.428Z,8.07
2022-08-02T16:16:35.250Z,7.78
2022-08-02T16:19:46.623Z,7.28
2022-08-02T16:21:50.775Z,5.65
2022-08-02T16:24:18.063Z,9.75
2022-08-02T16:26:45.491Z,6.40
2022-08-02T16:29:12.808Z,6.00
2022-08-02T16:31:42.792Z,5.80
2022-08-02T16:34:10.633Z,6.20
2022-08-02T16:36:38.050Z,4.93
2022-08-02T16:39:05.510Z,7.68
2022-08-02T16:41:45.404Z,5.47
2022-08-02T16:44:29.064Z,4.35
2022-08-02T16:47:01.242Z,5.07
2022-08-02T16:50:06.050Z,7.38
2022-08-02T16:52:27.634Z,5.45
2022-08-02T16:54:54.930Z,5.35
2022-08-02T16:57:22.219Z,5.47
2022-08-02T17:02:41.085Z,5.95
2022-08-02T17:05:13.518Z,8.23
2022-08-02T17:08:07.384Z,5.65
2022-08-02T17:10:31.322Z,4.90
2022-08-02T17:12:58.754Z,6.03
2022-08-02T17:16:15.948Z,5.03
2022-08-02T17:18:30.067Z,5.57
2022-08-02T17:20:58.143Z,5.30
2022-08-02T17:24:04.076Z,6.05
2022-08-02T17:26:13.195Z,8.00
2022-08-02T17:29:03.753Z,5.95
2022-08-02T17:31:29.759Z,4.97
2022-08-02T17:33:58.438Z,7.75
2022-08-02T17:36:26.084Z,6.38
2022-08-02T17:38:53.388Z,6.07
2022-08-02T17:41:37.333Z,6.20
2022-08-02T17:44:06.105Z,9.57
2022-08-02T17:46:36.025Z,8.70
2022-08-02T17:49:16.791Z,6.32
2022-08-02T17:52:49.188Z,7.25
2022-08-02T17:54:32.148Z,7.28
2022-08-02T17:56:59.431Z,5.78
2022-08-02T17:59:30.658Z,6.88
2022-08-02T18:02:01.109Z,8.85
2022-08-02T18:04:31.737Z,6.47
2022-08-02T18:07:04.042Z,8.48
2022-08-02T18:09:32.185Z,6.13
2022-08-02T18:11:59.748Z,5.95
2022-08-02T18:14:30.317Z,8.60
2022-08-02T18:16:57.644Z,10.80
2022-08-02T18:19:42.237Z,8.73
2022-08-02T18:22:10.818Z,9.73
2022-08-02T18:24:40.549Z,7.55
2022-08-02T18:27:09.389Z,10.27
2022-08-02T18:29:38.326Z,8.63
2022-08-02T18:32:11.881Z,7.57
2022-08-02T18:34:39.691Z,9.80
2022-08-02T18:37:08.030Z,6.43
2022-08-02T18:39:38.469Z,7.85
2022-08-02T18:42:05.996Z,7.18
2022-08-02T18:44:33.297Z,8.68
2022-08-02T18:47:00.917Z,11.55
2022-08-02T18:49:45.954Z,7.38
2022-08-02T18:52:14.769Z,6.93
2022-08-02T18:54:42.527Z,7.20
2022-08-02T18:58:16.793Z,14.60
2022-08-02T18:59:58.165Z,10.80
2022-08-02T19:02:25.465Z,7.30
2022-08-02T19:04:55.646Z,10.07
2022-08-02T19:07:23.035Z,9.57
2022-08-02T19:10:10.632Z,9.38
2022-08-02T19:12:38.755Z,9.57
2022-08-02T19:15:08.327Z,7.53
2022-08-02T19:17:53.754Z,11.23
2022-08-02T19:20:21.955Z,8.82
2022-08-02T19:22:53.690Z,7.60
2022-08-02T19:25:27.900Z,8.75
2022-08-02T19:27:55.583Z,13.07
2022-08-02T19:30:25.687Z,8.32
2022-08-02T19:32:58.875Z,9.10
2022-08-02T19:35:31.457Z,9.85
2022-08-02T19:38:09.395Z,9.48
2022-08-02T19:40:42.052Z,9.05
2022-08-02T19:44:24.049Z,12.80
2022-08-02T19:45:58.186Z,10.38
2022-08-02T19:51:13.038Z,8.95
2022-08-02T19:53:48.188Z,8.68
2022-08-02T19:56:20.571Z,11.38
2022-08-02T19:58:53.683Z,7.75
2022-08-02T20:01:28.068Z,9.43
2022-08-02T20:04:05.458Z,9.48
2022-08-02T20:06:32.849Z,11.05
2022-08-02T20:09:01.147Z,8.88
2022-08-02T20:11:34.860Z,10.05
2022-08-02T20:14:06.042Z,12.20
2022-08-02T20:16:34.385Z,10.07
2022-08-02T20:19:05.354Z,11.77
2022-08-02T20:21:35.666Z,9.23
2022-08-02T20:24:06.036Z,9.98
2022-08-02T20:26:35.846Z,9.82
2022-08-02T20:31:36.303Z,12.48
2022-08-02T20:34:04.759Z,11.40
2022-08-02T20:36:34.512Z,9.68
2022-08-02T20:39:01.827Z,9.80
2022-08-02T20:41:37.008Z,9.75
2022-08-02T20:44:30.627Z,11.55
2022-08-02T20:46:59.226Z,10.75
2022-08-02T20:49:41.366Z,11.35
2022-08-02T20:52:23.443Z,9.65
2022-08-02T20:54:52.833Z,8.73
2022-08-02T20:57:49.102Z,8.80
2022-08-02T21:00:09.090Z,9.50
2022-08-02T21:02:36.856Z,13.25
2022-08-02T21:05:07.612Z,10.05
2022-08-02T21:07:43.477Z,9.70
2022-08-02T21:10:15.411Z,15.15
2022-08-02T21:12:45.426Z,11.45
2022-08-02T21:15:12.818Z,10.38
2022-08-02T21:17:47.389Z,9.52
2022-08-02T21:20:29.329Z,10.65
2022-08-02T21:22:58.398Z,12.50
2022-08-02T21:25:42.386Z,10.23
2022-08-02T21:28:17.595Z,15.82
2022-08-02T21:30:45.958Z,11.27
2022-08-02T21:33:23.172Z,10.48
2022-08-02T21:35:52.241Z,10.45
2022-08-02T21:38:35.777Z,10.25
2022-08-02T21:41:06.917Z,7.95
2022-08-02T21:43:40.384Z,10.55
2022-08-02T21:46:11.234Z,11.73
2022-08-02T21:48:42.297Z,10.13
2022-08-02T21:51:10.006Z,11.15
2022-08-02T21:53:43.657Z,11.93
2022-08-02T21:56:31.097Z,10.75
2022-08-02T21:58:59.649Z,10.60
2022-08-02T22:01:28.469Z,10.15
2022-08-02T22:03:59.067Z,9.90
2022-08-02T22:06:26.725Z,11.30
2022-08-02T22:08:54.697Z,12.15
2022-08-02T22:11:22.515Z,12.55
2022-08-02T22:13:50.629Z,12.98
2022-08-02T22:16:18.684Z,13.48
2022-08-02T22:18:51.419Z,14.52
2022-08-02T22:21:20.680Z,13.13
2022-08-02T22:23:51.214Z,14.07
2022-08-02T22:26:19.413Z,15.80
2022-08-02T22:28:51.897Z,15.20
2022-08-02T22:31:40.356Z,13.70
2022-08-02T22:34:26.896Z,15.63
2022-08-02T22:36:56.295Z,27.83
2022-08-02T22:39:24.100Z,22.08
2022-08-02T22:42:05.610Z,17.27
2022-08-02T22:44:35.242Z,19.17
2022-08-02T22:47:03.973Z,23.83
2022-08-02T22:49:37.925Z,22.92
2022-08-02T22:52:20.878Z,21.42
2022-08-02T22:54:48.380Z,20.23
2022-08-02T22:57:15.642Z,28.48
2022-08-02T22:58:53.231Z,10.20
2022-08-02T22:59:43.319Z,17.95
2022-08-02T23:02:10.707Z,20.73
2022-08-02T23:04:38.204Z,16.83
2022-08-02T23:07:05.590Z,17.63
2022-08-02T23:09:33.455Z,19.33
2022-08-02T23:12:00.759Z,15.43
2022-08-02T23:14:28.213Z,19.00
2022-08-02T23:17:13.885Z,18.10
2022-08-02T23:19:53.238Z,16.25
2022-08-02T23:22:29.164Z,17.17
2022-08-02T23:24:58.893Z,14.88
2022-08-02T23:27:26.406Z,17.98
2022-08-02T23:29:53.689Z,14.25
2022-08-02T23:32:22.762Z,18.02
2022-08-02T23:34:56.534Z,17.85
2022-08-02T23:37:24.004Z,14.30
2022-08-02T23:39:51.368Z,16.35
2022-08-02T23:42:19.033Z,16.48
2022-08-02T23:44:46.619Z,15.43
2022-08-02T23:47:13.916Z,15.48
2022-08-02T23:49:41.339Z,12.63
2022-08-02T23:52:08.826Z,17.58
2022-08-02T23:54:36.189Z,13.30
2022-08-02T23:57:20.805Z,12.82
2022-08-02T23:59:52.159Z,15.27
